Time;durP1;ratioP1;P1;durP2;ratioP2;P2;SDS_P1;SDS_P2;PMS_P1;PMS_P2;Temp;Humidity;BMP_temperature;BMP_pressure;BME280_temperature;BME280_humidity;BME280_pressure;Samples;Min_cycle;Max_cycle;Signal;HPM_P1;HPM_P2
2022/05/23 00:02:01;;;;;;;6.07;1.90;;;15.20;90.70;;;;;;5054553;28;20052;-44
2022/05/23 00:04:28;;;;;;;5.80;1.83;;;15.20;90.60;;;;;;5072786;28;20076;-43
2022/05/23 00:06:56;;;;;;;5.93;2.40;;;15.20;90.70;;;;;;5054850;28;20040;-44
2022/05/23 00:09:22;;;;;;;6.35;2.10;;;15.20;90.80;;;;;;5042774;28;20054;-44
2022/05/23 00:11:50;;;;;;;4.93;1.88;;;15.20;90.90;;;;;;5071727;28;20400;-44
2022/05/23 00:14:17;;;;;;;6.65;1.95;;;15.10;90.80;;;;;;5054772;28;20054;-43
2022/05/23 00:16:46;;;;;;;7.82;1.90;;;15.10;90.90;;;;;;5071556;28;20408;-44
2022/05/23 00:19:12;;;;;;;3.40;1.73;;;15.10;90.90;;;;;;5053093;28;20057;-43
2022/05/23 00:21:40;;;;;;;3.67;1.50;;;15.10;91.00;;;;;;5071714;28;20428;-43
2022/05/23 00:24:07;;;;;;;7.55;1.67;;;15.00;90.90;;;;;;5053338;28;20053;-43
2022/05/23 00:26:34;;;;;;;6.82;1.98;;;15.00;91.10;;;;;;5070790;28;20063;-43
2022/05/23 00:29:02;;;;;;;6.35;1.67;;;15.00;91.00;;;;;;5068772;28;20059;-43
2022/05/23 00:31:29;;;;;;;5.38;1.83;;;15.00;91.00;;;;;;5070011;28;20045;-43
2022/05/23 00:36:39;;;;;;;6.43;2.28;;;14.90;90.90;;;;;;5071043;28;20048;-43
2022/05/23 00:39:06;;;;;;;5.43;1.70;;;14.90;91.00;;;;;;5071845;28;20051;-43
2022/05/23 00:44:26;;;;;;;4.10;1.70;;;14.80;91.10;;;;;;5069679;28;20060;-43
2022/05/23 00:46:54;;;;;;;5.93;1.58;;;14.80;91.20;;;;;;5072417;28;20056;-43
2022/05/23 00:49:23;;;;;;;9.38;2.10;;;14.70;91.10;;;;;;5053888;28;20056;-43
2022/05/23 00:51:49;;;;;;;5.15;2.15;;;14.70;91.20;;;;;;5052092;28;20556;-43
2022/05/23 00:54:16;;;;;;;5.78;2.17;;;14.70;91.40;;;;;;5053365;28;20052;-43
2022/05/23 00:56:43;;;;;;;6.43;2.15;;;14.70;91.40;;;;;;5054198;28;20503;-42
2022/05/23 00:59:10;;;;;;;7.15;2.38;;;14.70;91.50;;;;;;5070366;28;20049;-42
2022/05/23 01:01:38;;;;;;;8.40;2.22;;;14.60;91.40;;;;;;5052291;28;20055;-42
2022/05/23 01:04:05;;;;;;;3.88;1.75;;;14.60;91.60;;;;;;5051986;28;20049;-43
2022/05/23 01:06:32;;;;;;;4.97;1.70;;;14.70;91.80;;;;;;5054205;28;20444;-42
2022/05/23 01:08:59;;;;;;;7.93;2.03;;;14.60;91.80;;;;;;5052980;28;20045;-43
2022/05/23 01:11:25;;;;;;;4.32;1.63;;;14.50;91.90;;;;;;5070396;28;20044;-43
2022/05/23 01:13:53;;;;;;;7.82;1.95;;;14.50;91.80;;;;;;5071104;28;20057;-43
2022/05/23 01:16:21;;;;;;;6.38;1.65;;;14.50;91.80;;;;;;5069780;28;20052;-43
2022/05/23 01:18:49;;;;;;;4.40;2.05;;;14.50;91.90;;;;;;5052582;28;20509;-43
2022/05/23 01:21:19;;;;;;;4.90;1.67;;;14.50;92.30;;;;;;5071968;28;20053;-43
2022/05/23 01:23:48;;;;;;;5.93;1.70;;;14.50;92.00;;;;;;5053092;28;20405;-43
2022/05/23 01:26:16;;;;;;;9.18;2.38;;;14.40;92.00;;;;;;5053292;28;20307;-42
2022/05/23 01:28:43;;;;;;;7.63;2.22;;;14.40;92.10;;;;;;5052770;28;20041;-43
2022/05/23 01:31:11;;;;;;;6.32;2.00;;;14.40;92.10;;;;;;5069532;28;20053;-43
2022/05/23 01:33:38;;;;;;;5.88;1.90;;;14.40;92.30;;;;;;5071108;28;20499;-43
2022/05/23 01:36:05;;;;;;;4.68;2.10;;;14.40;92.30;;;;;;5051733;28;20059;-44
2022/05/23 01:38:32;;;;;;;5.15;1.65;;;14.40;92.40;;;;;;5054829;28;20052;-44
2022/05/23 01:40:59;;;;;;;5.93;2.20;;;14.40;92.20;;;;;;5054612;28;20062;-42
2022/05/23 01:43:27;;;;;;;3.47;1.90;;;14.40;92.20;;;;;;5073518;28;20070;-43
2022/05/23 01:45:54;;;;;;;7.57;2.08;;;14.40;92.40;;;;;;5074821;28;20052;-42
2022/05/23 01:48:20;;;;;;;7.30;2.20;;;14.30;92.40;;;;;;5055806;28;20583;-42
2022/05/23 01:50:47;;;;;;;6.95;2.10;;;14.30;92.50;;;;;;5072741;28;20044;-44
2022/05/23 01:53:14;;;;;;;4.80;1.75;;;14.30;92.50;;;;;;5055213;28;20055;-43
2022/05/23 01:55:40;;;;;;;5.07;1.75;;;14.30;92.50;;;;;;5056665;28;20055;-44
2022/05/23 01:58:07;;;;;;;7.35;1.92;;;14.20;92.40;;;;;;5055700;28;20048;-43
2022/05/23 02:03:22;;;;;;;4.03;2.10;;;14.30;92.50;;;;;;5025943;28;20049;-43
2022/05/23 02:05:51;;;;;;;6.32;2.35;;;14.30;92.50;;;;;;5053064;28;20060;-44
2022/05/23 02:08:18;;;;;;;7.78;1.90;;;14.30;92.40;;;;;;5070278;28;20048;-43
2022/05/23 02:10:45;;;;;;;6.82;2.20;;;14.30;92.40;;;;;;5056332;28;20572;-44
2022/05/23 02:13:11;;;;;;;7.75;1.80;;;14.30;92.40;;;;;;5072285;28;20378;-44
2022/05/23 02:15:39;;;;;;;6.22;2.00;;;14.40;92.50;;;;;;5074837;28;20049;-43
2022/05/23 02:18:06;;;;;;;4.95;1.58;;;14.30;92.60;;;;;;5054599;28;20056;-43
2022/05/23 02:20:33;;;;;;;5.07;1.80;;;14.30;92.50;;;;;;5056381;28;20370;-44
2022/05/23 02:23:00;;;;;;;4.63;1.80;;;14.30;92.70;;;;;;5072662;28;20059;-44
2022/05/23 02:25:27;;;;;;;5.03;1.60;;;14.30;92.50;;;;;;5074493;28;20048;-44
2022/05/23 02:27:53;;;;;;;5.65;2.05;;;14.30;92.30;;;;;;5055149;28;20059;-44
2022/05/23 02:30:20;;;;;;;7.32;1.77;;;14.30;92.50;;;;;;5072022;28;20057;-43
2022/05/23 02:32:48;;;;;;;5.32;2.00;;;14.30;92.70;;;;;;5054319;28;20055;-43
2022/05/23 02:35:16;;;;;;;6.47;1.95;;;14.30;92.80;;;;;;5068002;28;20508;-44
2022/05/23 02:37:42;;;;;;;4.53;1.80;;;14.20;93.00;;;;;;5072048;28;20044;-43
2022/05/23 02:40:10;;;;;;;4.82;1.73;;;14.20;92.90;;;;;;5056156;28;20057;-43
2022/05/23 02:42:37;;;;;;;7.15;1.90;;;14.20;93.00;;;;;;5071639;28;20048;-44
2022/05/23 02:45:06;;;;;;;5.88;1.85;;;14.20;93.00;;;;;;5071616;28;20055;-44
2022/05/23 02:47:32;;;;;;;5.45;2.03;;;14.20;93.10;;;;;;5055436;28;20049;-44
2022/05/23 02:50:00;;;;;;;6.30;2.05;;;14.20;93.10;;;;;;5072384;28;20053;-42
2022/05/23 02:52:27;;;;;;;5.90;2.10;;;14.20;93.10;;;;;;5071114;28;20040;-43
2022/05/23 02:54:54;;;;;;;6.13;2.10;;;14.20;93.20;;;;;;5054677;28;20123;-43
2022/05/23 02:57:21;;;;;;;7.68;2.00;;;14.20;93.30;;;;;;5055523;28;21294;-43
2022/05/23 02:59:48;;;;;;;3.95;1.80;;;14.20;93.30;;;;;;5072559;28;20045;-43
2022/05/23 03:05:09;;;;;;;5.88;2.05;;;14.20;93.10;;;;;;5024367;28;20190;-43
2022/05/23 03:07:36;;;;;;;8.00;2.00;;;14.20;93.20;;;;;;5054446;28;20044;-44
2022/05/23 03:10:02;;;;;;;4.40;1.67;;;14.20;93.20;;;;;;5068919;28;20056;-43
2022/05/23 03:12:29;;;;;;;5.07;1.98;;;14.20;93.20;;;;;;5072149;28;20155;-43
2022/05/23 03:14:56;;;;;;;9.05;1.83;;;14.20;93.20;;;;;;5072719;28;20556;-43
2022/05/23 03:17:23;;;;;;;3.83;1.83;;;14.20;93.40;;;;;;5054201;28;20136;-43
2022/05/23 03:19:49;;;;;;;5.63;2.30;;;14.20;93.50;;;;;;5035642;28;20512;-43
2022/05/23 03:27:46;;;;;;;10.57;2.55;;;14.20;93.70;;;;;;5071588;28;20053;-43
2022/05/23 03:30:13;;;;;;;8.15;2.15;;;14.10;93.70;;;;;;5071990;28;20049;-43
2022/05/23 03:32:40;;;;;;;6.22;2.20;;;14.10;93.70;;;;;;5053548;28;20048;-43
2022/05/23 03:35:08;;;;;;;5.30;2.08;;;14.10;93.80;;;;;;5071516;28;20040;-43
2022/05/23 03:37:36;;;;;;;3.95;2.13;;;14.10;93.80;;;;;;5053864;28;20381;-43
2022/05/23 03:40:03;;;;;;;4.18;2.00;;;14.10;93.80;;;;;;5054526;28;20063;-44
2022/05/23 03:42:30;;;;;;;6.40;2.35;;;14.10;93.90;;;;;;5071775;28;20059;-42
2022/05/23 03:44:56;;;;;;;6.18;2.20;;;14.10;93.90;;;;;;5053531;28;20041;-41
2022/05/23 03:47:23;;;;;;;6.97;2.40;;;14.10;94.00;;;;;;5051035;28;20053;-44
2022/05/23 03:49:50;;;;;;;5.30;2.78;;;14.10;93.90;;;;;;5053692;28;20067;-42
2022/05/23 03:52:16;;;;;;;7.75;2.35;;;14.10;94.10;;;;;;5071992;28;20519;-43
2022/05/23 03:54:44;;;;;;;5.65;2.10;;;14.10;94.10;;;;;;5054534;28;20381;-43
2022/05/23 03:57:11;;;;;;;3.90;1.70;;;14.10;94.10;;;;;;5052945;28;20095;-43
2022/05/23 03:59:38;;;;;;;6.75;2.30;;;14.10;93.90;;;;;;5070349;28;20048;-43
2022/05/23 04:02:05;;;;;;;6.50;2.33;;;14.00;93.90;;;;;;5070271;28;20084;-42
2022/05/23 04:04:32;;;;;;;7.15;2.35;;;14.10;94.10;;;;;;5068108;28;20044;-43
2022/05/23 04:06:59;;;;;;;6.63;2.38;;;14.10;94.30;;;;;;5056362;28;20102;-42
2022/05/23 04:09:27;;;;;;;7.07;2.53;;;14.00;94.30;;;;;;5067541;28;20057;-43
2022/05/23 04:11:55;;;;;;;4.70;2.00;;;14.00;94.40;;;;;;5053000;28;20057;-42
2022/05/23 04:14:21;;;;;;;4.03;2.20;;;14.00;94.10;;;;;;5053000;28;20079;-43
2022/05/23 04:16:48;;;;;;;10.25;2.65;;;14.00;94.20;;;;;;5070662;28;20048;-43
2022/05/23 04:19:15;;;;;;;5.68;2.10;;;14.00;94.30;;;;;;5062021;28;20051;-43
2022/05/23 04:21:42;;;;;;;7.78;2.60;;;14.00;94.20;;;;;;5052661;28;20404;-43
2022/05/23 04:24:09;;;;;;;6.75;2.22;;;14.00;94.30;;;;;;5068416;28;20054;-43
2022/05/23 04:26:36;;;;;;;13.75;2.55;;;14.00;94.40;;;;;;5050598;28;20048;-44
2022/05/23 04:29:04;;;;;;;9.25;2.63;;;14.00;94.40;;;;;;5066268;28;20408;-43
2022/05/23 04:31:31;;;;;;;6.20;2.75;;;14.00;94.50;;;;;;5059044;28;20412;-43
2022/05/23 04:36:41;;;;;;;5.82;2.50;;;14.00;94.60;;;;;;5055809;28;20477;-43
2022/05/23 04:39:08;;;;;;;4.75;2.22;;;14.00;94.70;;;;;;5057121;28;20078;-43
2022/05/23 04:41:35;;;;;;;8.60;2.67;;;14.00;94.80;;;;;;5065302;28;20475;-43
2022/05/23 04:44:01;;;;;;;9.00;2.55;;;13.90;95.00;;;;;;5069570;28;20044;-42
2022/05/23 04:46:29;;;;;;;6.00;3.25;;;14.00;95.10;;;;;;5054522;28;20063;-43
2022/05/23 04:51:40;;;;;;;9.48;2.80;;;14.00;95.30;;;;;;5064568;28;20045;-43
2022/05/23 04:54:07;;;;;;;6.63;2.40;;;14.00;95.40;;;;;;5044111;28;20056;-43
2022/05/23 04:56:34;;;;;;;7.78;2.60;;;14.00;95.30;;;;;;5065916;28;20052;-43
2022/05/23 04:59:01;;;;;;;9.75;3.15;;;14.10;95.20;;;;;;5051485;28;20600;-43
2022/05/23 05:01:28;;;;;;;7.07;3.08;;;14.10;95.50;;;;;;5046136;28;20421;-43
2022/05/23 05:03:57;;;;;;;6.78;2.83;;;14.10;95.50;;;;;;5040180;28;20051;-43
2022/05/23 05:06:27;;;;;;;10.20;3.20;;;14.20;95.60;;;;;;5058852;28;20049;-44
2022/05/23 05:08:53;;;;;;;7.93;3.35;;;14.20;95.70;;;;;;5057501;28;20057;-43
2022/05/23 05:11:23;;;;;;;8.43;3.08;;;14.30;95.80;;;;;;5068420;28;20382;-44
2022/05/23 05:13:50;;;;;;;6.82;2.88;;;14.30;95.80;;;;;;5045079;28;20060;-43
2022/05/23 05:16:19;;;;;;;7.22;2.90;;;14.30;95.80;;;;;;5037155;28;20051;-42
2022/05/23 05:18:45;;;;;;;7.22;3.30;;;14.40;95.80;;;;;;5035943;28;20051;-43
2022/05/23 05:21:13;;;;;;;10.02;3.42;;;14.40;95.80;;;;;;5071641;28;20488;-43
2022/05/23 05:23:40;;;;;;;8.48;3.60;;;14.50;95.90;;;;;;5055266;28;20432;-44
2022/05/23 05:26:07;;;;;;;10.50;3.45;;;14.50;95.80;;;;;;5049100;28;20052;-43
2022/05/23 05:28:34;;;;;;;8.10;3.20;;;14.50;95.80;;;;;;5072971;28;20519;-44
2022/05/23 05:31:03;;;;;;;8.32;3.00;;;14.60;95.80;;;;;;5074674;28;20099;-44
2022/05/23 05:33:31;;;;;;;10.73;4.10;;;14.60;95.90;;;;;;5073158;28;20080;-43
2022/05/23 05:35:58;;;;;;;6.22;3.53;;;14.70;95.80;;;;;;5055757;28;20051;-43
2022/05/23 05:38:28;;;;;;;9.75;3.40;;;14.70;95.80;;;;;;5073889;28;20484;-43
2022/05/23 05:40:56;;;;;;;6.80;3.33;;;14.70;95.80;;;;;;5055645;28;20126;-43
2022/05/23 05:43:24;;;;;;;10.52;3.80;;;14.80;95.90;;;;;;5071959;28;20054;-43
2022/05/23 05:45:53;;;;;;;9.40;4.00;;;14.80;95.80;;;;;;5059015;28;20063;-43
2022/05/23 05:48:20;;;;;;;7.57;3.83;;;14.90;95.70;;;;;;5069561;28;20447;-42
2022/05/23 05:50:46;;;;;;;12.35;3.85;;;15.00;95.60;;;;;;5074624;28;20054;-43
2022/05/23 05:53:15;;;;;;;9.93;3.85;;;15.10;95.60;;;;;;5073459;28;20494;-44
2022/05/23 05:55:43;;;;;;;14.05;4.15;;;15.20;95.60;;;;;;5073882;28;20403;-43
2022/05/23 05:58:09;;;;;;;7.90;4.00;;;15.40;95.50;;;;;;5069670;28;20056;-42
2022/05/23 06:00:36;;;;;;;13.30;4.25;;;15.40;95.40;;;;;;5054287;28;20049;-42
2022/05/23 06:03:03;;;;;;;11.57;4.18;;;15.50;95.30;;;;;;5081970;28;20048;-43
2022/05/23 06:05:29;;;;;;;8.82;4.38;;;15.60;95.20;;;;;;5056649;28;20152;-43
2022/05/23 06:13:26;;;;;;;9.80;4.00;;;15.90;95.00;;;;;;5065554;28;20056;-43
2022/05/23 06:15:52;;;;;;;16.35;4.43;;;16.00;95.10;;;;;;5075621;28;20066;-43
2022/05/23 06:18:19;;;;;;;7.88;3.97;;;16.10;95.20;;;;;;5080014;28;20062;-44
2022/05/23 06:20:47;;;;;;;8.48;4.00;;;16.20;95.00;;;;;;5053013;28;20393;-43
2022/05/23 06:23:13;;;;;;;9.25;4.32;;;16.30;95.10;;;;;;5072060;28;20048;-44
2022/05/23 06:25:40;;;;;;;8.27;4.28;;;16.40;94.90;;;;;;5046713;28;20111;-43
2022/05/23 06:28:07;;;;;;;10.45;4.82;;;16.50;94.70;;;;;;5089485;28;20040;-43
2022/05/23 06:30:35;;;;;;;10.52;4.20;;;16.60;94.70;;;;;;5082398;28;20409;-43
2022/05/23 06:33:02;;;;;;;11.43;4.07;;;16.70;94.50;;;;;;5073297;28;20071;-43
2022/05/23 06:35:29;;;;;;;9.48;4.72;;;16.80;94.40;;;;;;5073239;28;20075;-44
2022/05/23 06:37:55;;;;;;;9.73;4.63;;;16.90;94.40;;;;;;5073241;28;20044;-43
2022/05/23 06:40:22;;;;;;;9.77;4.57;;;17.00;94.40;;;;;;5073138;28;20040;-43
2022/05/23 06:42:49;;;;;;;8.40;4.03;;;17.20;94.20;;;;;;5072834;28;20053;-43
2022/05/23 06:45:18;;;;;;;10.35;4.30;;;17.20;94.10;;;;;;5054948;28;20151;-42
2022/05/23 06:47:46;;;;;;;11.50;4.93;;;17.40;93.80;;;;;;5054326;28;20075;-43
2022/05/23 06:50:13;;;;;;;10.18;4.60;;;17.50;93.80;;;;;;5055456;28;20055;-42
2022/05/23 06:52:39;;;;;;;13.15;5.22;;;17.70;93.60;;;;;;5042418;28;20057;-44
2022/05/23 06:55:07;;;;;;;12.70;4.90;;;17.80;93.40;;;;;;5054731;28;20131;-43
2022/05/23 06:57:34;;;;;;;13.32;4.50;;;18.00;93.10;;;;;;5053299;28;20412;-43
2022/05/23 07:00:01;;;;;;;9.40;4.35;;;18.20;93.10;;;;;;5055290;28;20404;-44
2022/05/23 07:02:27;;;;;;;11.32;4.70;;;18.40;92.60;;;;;;5072614;28;20048;-43
2022/05/23 07:13:11;;;;;;;12.23;5.10;;;18.70;92.10;;;;;;5072212;28;20052;-43
2022/05/23 07:15:38;;;;;;;8.50;4.55;;;18.90;92.10;;;;;;5076068;28;20135;-43
2022/05/23 07:18:05;;;;;;;12.73;4.55;;;18.90;92.10;;;;;;5054364;28;20055;-44
2022/05/23 07:20:33;;;;;;;8.68;4.20;;;19.00;92.10;;;;;;5053407;28;20076;-44
2022/05/23 07:23:00;;;;;;;17.88;5.43;;;19.20;91.90;;;;;;5069931;28;20050;-43
2022/05/23 07:25:27;;;;;;;11.48;4.13;;;19.30;91.90;;;;;;5047828;28;20527;-43
2022/05/23 07:27:54;;;;;;;8.88;5.13;;;19.40;91.70;;;;;;5052715;28;20124;-44
2022/05/23 07:30:21;;;;;;;9.10;4.20;;;19.50;91.30;;;;;;5052600;28;20056;-44
2022/05/23 07:32:48;;;;;;;7.68;4.20;;;19.60;91.40;;;;;;5051331;28;20052;-44
2022/05/23 07:35:14;;;;;;;7.80;4.00;;;19.80;91.30;;;;;;5052539;28;20131;-44
2022/05/23 07:37:42;;;;;;;11.15;3.83;;;20.00;91.00;;;;;;5052146;28;20135;-44
2022/05/23 07:40:10;;;;;;;8.85;3.85;;;20.20;90.30;;;;;;5051230;28;20067;-44
2022/05/23 07:42:37;;;;;;;9.05;4.10;;;20.30;90.10;;;;;;5051315;28;20136;-43
2022/05/23 07:45:05;;;;;;;11.10;4.20;;;20.30;89.80;;;;;;5052598;28;20064;-43
2022/05/23 07:47:32;;;;;;;7.38;3.75;;;20.40;89.30;;;;;;5051284;28;20052;-43
2022/05/23 07:49:59;;;;;;;6.55;4.10;;;20.50;88.70;;;;;;5052249;28;20095;-43
2022/05/23 07:52:26;;;;;;;8.88;4.00;;;20.60;88.40;;;;;;5052721;28;20110;-43
2022/05/23 08:00:31;;;;;;;21.42;4.28;;;20.80;87.90;;;;;;5023364;28;20048;-43
2022/05/23 08:02:58;;;;;;;7.75;4.40;;;20.90;87.10;;;;;;5053847;28;20045;-43
2022/05/23 08:05:25;;;;;;;6.50;4.03;;;21.00;87.00;;;;;;5053740;28;20052;-43
2022/05/23 08:07:51;;;;;;;8.25;3.60;;;21.10;86.50;;;;;;5071566;28;20515;-44
2022/05/23 08:10:20;;;;;;;8.13;3.92;;;21.30;86.70;;;;;;5071731;28;20057;-43
2022/05/23 08:12:48;;;;;;;8.80;4.40;;;21.50;86.20;;;;;;5053713;28;20053;-43
2022/05/23 08:15:15;;;;;;;8.75;3.95;;;21.60;85.30;;;;;;5071511;28;20055;-43
2022/05/23 08:17:41;;;;;;;7.50;3.95;;;21.70;84.70;;;;;;5071377;28;20059;-43
2022/05/23 08:20:10;;;;;;;8.27;4.30;;;21.80;84.80;;;;;;5071866;28;20131;-43
2022/05/23 08:22:37;;;;;;;8.13;3.92;;;21.90;83.80;;;;;;5038814;28;20056;-43
2022/05/23 08:25:04;;;;;;;7.93;3.85;;;21.90;84.20;;;;;;5051485;28;20477;-43
2022/05/23 08:27:32;;;;;;;7.68;3.67;;;22.00;83.70;;;;;;5051579;28;20074;-43
2022/05/23 08:29:59;;;;;;;7.82;3.35;;;22.10;84.40;;;;;;5055996;28;20080;-44
2022/05/23 08:32:26;;;;;;;8.73;4.10;;;22.30;84.00;;;;;;5054012;28;20056;-44
2022/05/23 08:34:53;;;;;;;9.55;4.40;;;22.40;82.90;;;;;;5072058;28;20388;-42
2022/05/23 08:37:19;;;;;;;9.25;4.13;;;22.60;81.30;;;;;;5071981;28;20390;-42
2022/05/23 08:39:47;;;;;;;7.28;3.60;;;22.60;81.10;;;;;;5053471;28;20493;-43
2022/05/23 08:42:20;;;;;;;7.05;3.63;;;22.70;81.60;;;;;;5071398;28;20554;-43
2022/05/23 08:44:49;;;;;;;11.23;3.55;;;22.90;82.50;;;;;;5075427;28;20059;-42
2022/05/23 08:47:21;;;;;;;8.65;4.72;;;23.10;81.20;;;;;;5057471;28;20398;-43
2022/05/23 08:49:54;;;;;;;9.73;4.00;;;23.20;79.90;;;;;;5057726;28;20052;-43
2022/05/23 08:52:23;;;;;;;9.30;3.90;;;23.20;79.60;;;;;;5057300;28;20056;-43
2022/05/23 08:54:54;;;;;;;7.53;3.92;;;23.20;78.80;;;;;;5075552;28;20048;-43
2022/05/23 08:57:26;;;;;;;13.73;4.25;;;23.30;79.50;;;;;;5057248;28;20063;-43
2022/05/23 08:59:55;;;;;;;7.63;3.60;;;23.30;79.60;;;;;;5075180;28;20066;-43
2022/05/23 09:02:28;;;;;;;9.82;4.13;;;23.60;80.40;;;;;;5057629;28;20143;-43
2022/05/23 09:04:57;;;;;;;7.43;3.42;;;23.80;78.90;;;;;;5075285;28;20075;-44
2022/05/23 09:07:25;;;;;;;7.00;4.00;;;23.90;78.40;;;;;;5072247;28;20041;-44
2022/05/23 09:09:52;;;;;;;6.55;3.50;;;24.00;78.50;;;;;;5056171;28;20477;-44
2022/05/23 09:12:19;;;;;;;7.30;3.55;;;24.10;77.60;;;;;;5055763;28;20416;-44
2022/05/23 09:14:46;;;;;;;8.43;3.38;;;24.20;77.40;;;;;;5064598;28;20052;-44
2022/05/23 09:17:19;;;;;;;6.15;3.45;;;24.30;75.50;;;;;;5071527;28;20044;-44
2022/05/23 09:19:50;;;;;;;9.63;3.38;;;24.40;74.70;;;;;;5052397;28;20048;-44
2022/05/23 09:22:18;;;;;;;10.95;3.17;;;24.50;75.00;;;;;;5056447;28;20045;-44
2022/05/23 09:24:46;;;;;;;5.55;3.33;;;24.60;75.10;;;;;;5057235;28;20052;-43
2022/05/23 09:27:19;;;;;;;5.00;2.58;;;24.80;74.20;;;;;;5071980;28;20044;-44
2022/05/23 09:29:49;;;;;;;6.47;3.00;;;25.00;73.90;;;;;;5054542;28;20050;-44
2022/05/23 09:32:18;;;;;;;6.72;2.40;;;25.20;72.40;;;;;;5057024;28;20054;-44
2022/05/23 09:34:46;;;;;;;5.10;2.60;;;25.30;73.50;;;;;;5046305;28;20060;-44
2022/05/23 09:37:18;;;;;;;6.07;2.83;;;25.40;72.40;;;;;;5084771;28;20044;-43
2022/05/23 09:39:51;;;;;;;8.75;3.10;;;25.40;70.80;;;;;;5075947;28;20047;-44
2022/05/23 09:47:56;;;;;;;15.75;2.72;;;25.20;69.90;;;;;;5074373;28;20052;-43
2022/05/23 09:50:31;;;;;;;8.68;2.67;;;25.20;70.80;;;;;;5056485;28;20098;-43
2022/05/23 09:52:59;;;;;;;9.20;2.67;;;25.30;71.20;;;;;;5089476;28;20044;-43
2022/05/23 09:55:28;;;;;;;8.88;2.35;;;25.30;70.10;;;;;;5076583;28;20105;-44
2022/05/23 09:57:55;;;;;;;7.70;3.05;;;25.30;69.00;;;;;;5094666;28;20135;-43
2022/05/23 10:00:32;;;;;;;7.38;2.60;;;25.30;69.00;;;;;;5089373;28;20503;-43
2022/05/23 10:03:02;;;;;;;3.90;2.60;;;25.30;69.10;;;;;;5083544;28;20102;-44
2022/05/23 10:05:31;;;;;;;6.38;2.67;;;25.30;68.70;;;;;;5081450;28;20041;-44
2022/05/23 10:08:00;;;;;;;7.90;3.03;;;25.40;69.30;;;;;;5072158;28;20413;-43
2022/05/23 10:10:28;;;;;;;8.82;2.45;;;25.40;67.90;;;;;;5071633;28;20131;-44
2022/05/23 10:13:12;;;;;;;4.55;2.60;;;25.40;67.40;;;;;;5052765;28;20493;-44
2022/05/23 10:15:43;;;;;;;5.55;2.50;;;25.50;66.90;;;;;;5061296;28;20045;-45
2022/05/23 10:18:12;;;;;;;7.05;2.65;;;25.60;67.40;;;;;;5053916;28;20594;-44
2022/05/23 10:20:39;;;;;;;6.95;2.88;;;25.60;67.10;;;;;;5073182;28;20053;-43
2022/05/23 10:23:08;;;;;;;7.97;2.67;;;25.70;67.30;;;;;;5073825;28;20417;-43
2022/05/23 10:25:38;;;;;;;5.78;2.67;;;25.70;66.20;;;;;;5058548;28;20053;-43
2022/05/23 10:28:09;;;;;;;10.52;2.75;;;25.80;66.50;;;;;;5036434;28;20139;-44
2022/05/23 10:30:36;;;;;;;8.00;2.95;;;25.90;66.90;;;;;;5044861;28;20040;-43
2022/05/23 10:33:06;;;;;;;7.50;2.50;;;26.10;66.80;;;;;;5034802;28;20057;-44
2022/05/23 10:35:38;;;;;;;10.18;2.97;;;26.20;65.50;;;;;;5069496;28;20424;-43
2022/05/23 10:43:35;;;;;;;5.22;2.40;;;26.50;65.20;;;;;;5048168;28;20084;-44
2022/05/23 10:46:02;;;;;;;9.85;2.60;;;26.60;64.50;;;;;;5046555;28;20120;-44
2022/05/23 10:48:39;;;;;;;3.47;1.85;;;26.60;62.80;;;;;;5036555;28;20061;-43
2022/05/23 10:51:14;;;;;;;9.07;2.67;;;26.60;62.30;;;;;;5059051;28;20056;-44
2022/05/23 10:53:53;;;;;;;4.10;2.10;;;26.70;62.30;;;;;;5056228;28;20044;-44
2022/05/23 10:56:25;;;;;;;5.95;1.70;;;26.80;61.90;;;;;;5056280;28;20095;-43
2022/05/23 10:58:53;;;;;;;6.47;2.20;;;27.00;59.90;;;;;;5072505;28;20055;-44
2022/05/23 11:01:27;;;;;;;5.20;1.58;;;27.20;59.30;;;;;;5073580;28;20048;-44
2022/05/23 11:03:56;;;;;;;6.20;1.80;;;27.30;59.70;;;;;;5055904;28;20087;-44
2022/05/23 11:06:27;;;;;;;4.70;1.75;;;27.40;58.20;;;;;;5036813;28;20477;-44
2022/05/23 11:09:01;;;;;;;6.38;2.10;;;27.50;57.40;;;;;;5036408;28;20049;-44
2022/05/23 11:11:37;;;;;;;5.53;1.90;;;27.50;56.90;;;;;;5053753;28;20404;-43
2022/05/23 11:14:09;;;;;;;3.22;1.77;;;27.50;57.30;;;;;;5053709;28;20139;-44
2022/05/23 11:16:38;;;;;;;5.45;1.92;;;27.60;58.20;;;;;;5038341;28;20045;-44
2022/05/23 11:19:15;;;;;;;6.88;1.88;;;27.80;57.40;;;;;;5072387;28;20055;-44
2022/05/23 11:21:47;;;;;;;5.63;1.83;;;27.90;57.70;;;;;;5039987;28;20045;-44
2022/05/23 11:24:17;;;;;;;7.85;1.77;;;28.20;57.30;;;;;;5035745;28;20063;-44
2022/05/23 11:26:46;;;;;;;4.83;1.70;;;28.30;56.60;;;;;;5035996;28;20059;-44
2022/05/23 11:34:45;;;;;;;5.95;1.80;;;28.10;55.30;;;;;;5066060;28;20437;-44
2022/05/23 11:39:57;;;;;;;6.07;2.15;;;28.00;54.80;;;;;;5054299;28;20139;-43
2022/05/23 11:42:28;;;;;;;4.15;1.90;;;27.90;55.20;;;;;;5073196;28;20496;-43
2022/05/23 11:48:02;;;;;;;4.68;2.38;;;28.00;55.70;;;;;;5072961;28;20060;-42
2022/05/23 11:50:31;;;;;;;5.60;2.03;;;28.10;55.80;;;;;;5054793;28;20131;-43
2022/05/23 11:53:11;;;;;;;3.22;1.90;;;28.10;56.00;;;;;;5055501;28;20056;-44
2022/05/23 11:56:01;;;;;;;3.73;1.90;;;28.20;55.00;;;;;;5046126;28;20048;-43
2022/05/23 11:58:38;;;;;;;6.00;1.90;;;28.10;54.60;;;;;;5047281;28;20052;-44
2022/05/23 12:01:06;;;;;;;4.22;1.90;;;28.10;55.70;;;;;;5050425;28;20044;-44
2022/05/23 12:04:06;;;;;;;4.97;2.35;;;28.30;57.00;;;;;;5072586;28;20139;-44
2022/05/23 12:06:37;;;;;;;5.97;2.03;;;28.60;54.20;;;;;;5071679;28;20178;-43
2022/05/23 12:09:07;;;;;;;6.28;2.28;;;28.70;53.90;;;;;;5053276;28;20040;-43
2022/05/23 12:11:35;;;;;;;5.30;2.00;;;28.60;53.50;;;;;;5070908;28;20075;-44
2022/05/23 12:14:14;;;;;;;8.02;2.60;;;28.50;54.80;;;;;;5055325;28;20060;-45
2022/05/23 12:16:42;;;;;;;4.80;2.05;;;28.20;53.90;;;;;;5052587;28;20422;-45
2022/05/23 12:19:32;;;;;;;6.70;2.30;;;27.90;55.30;;;;;;5062935;28;20135;-44
2022/05/23 12:22:19;;;;;;;5.70;2.40;;;27.70;54.90;;;;;;5040337;28;20045;-44
2022/05/23 12:25:25;;;;;;;7.78;2.88;;;27.60;55.50;;;;;;5047451;28;20049;-44
2022/05/23 12:28:23;;;;;;;4.32;2.10;;;27.50;54.50;;;;;;5054313;28;20083;-44
2022/05/23 12:31:10;;;;;;;6.18;2.05;;;27.30;55.00;;;;;;5072606;28;20088;-44
2022/05/23 12:33:48;;;;;;;5.00;2.17;;;27.30;57.30;;;;;;5052327;28;20551;-43
2022/05/23 12:36:19;;;;;;;6.85;2.05;;;27.40;57.00;;;;;;5064136;28;20059;-43
2022/05/23 12:39:02;;;;;;;6.85;2.42;;;27.40;56.70;;;;;;5054556;28;20052;-43
2022/05/23 12:41:45;;;;;;;5.78;1.92;;;27.40;55.90;;;;;;5054446;28;20044;-43
2022/05/23 12:44:35;;;;;;;6.90;2.08;;;27.20;55.30;;;;;;5072417;28;20048;-43
2022/05/23 12:47:06;;;;;;;6.80;2.17;;;27.10;56.70;;;;;;5072249;28;20480;-43
2022/05/23 12:49:42;;;;;;;4.78;2.33;;;26.90;56.20;;;;;;5070143;28;20132;-44
2022/05/23 12:52:24;;;;;;;9.13;2.28;;;26.90;56.80;;;;;;5047737;28;20053;-43
2022/05/23 12:55:05;;;;;;;6.72;2.20;;;26.90;57.60;;;;;;5051751;28;20053;-44
2022/05/23 12:58:06;;;;;;;7.95;2.75;;;27.00;58.40;;;;;;5061429;28;20400;-44
2022/05/23 13:00:35;;;;;;;6.47;2.80;;;27.00;58.80;;;;;;5064753;28;20408;-43
2022/05/23 13:03:07;;;;;;;6.50;2.78;;;26.90;58.10;;;;;;5070541;28;20048;-44
2022/05/23 13:05:36;;;;;;;5.82;2.35;;;26.70;58.40;;;;;;5045615;28;20056;-44
2022/05/23 13:08:06;;;;;;;5.28;2.72;;;26.70;60.00;;;;;;5052518;28;20053;-44
2022/05/23 13:10:34;;;;;;;4.50;2.60;;;26.70;62.00;;;;;;5048215;28;20052;-44
2022/05/23 13:13:04;;;;;;;6.07;3.40;;;26.80;64.20;;;;;;5051890;28;20057;-45
2022/05/23 13:15:33;;;;;;;7.28;3.15;;;26.70;64.10;;;;;;5055630;28;20132;-44
2022/05/23 13:23:24;;;;;;;4.85;3.03;;;26.50;64.10;;;;;;5054106;28;20135;-44
2022/05/23 13:25:51;;;;;;;5.43;2.63;;;26.40;63.80;;;;;;5046786;28;20058;-44
2022/05/23 13:28:19;;;;;;;7.55;2.83;;;26.30;64.10;;;;;;5047765;28;20057;-44
2022/05/23 13:30:48;;;;;;;5.93;2.85;;;26.30;63.70;;;;;;5048695;28;20064;-43
2022/05/23 13:33:16;;;;;;;8.50;3.28;;;26.20;63.80;;;;;;5056436;28;20519;-44
2022/05/23 13:35:44;;;;;;;6.93;3.10;;;26.20;63.20;;;;;;5045510;28;20040;-44
2022/05/23 13:38:20;;;;;;;6.32;3.22;;;26.20;63.00;;;;;;5065346;28;20124;-44
2022/05/23 13:40:48;;;;;;;5.97;3.28;;;26.20;63.60;;;;;;5067765;28;20106;-44
2022/05/23 13:43:17;;;;;;;5.82;3.10;;;26.10;63.50;;;;;;5066582;28;20135;-44
2022/05/23 13:45:48;;;;;;;5.30;2.85;;;26.20;63.50;;;;;;5055410;28;20106;-44
2022/05/23 13:48:17;;;;;;;8.77;3.40;;;26.20;63.80;;;;;;5044831;28;20400;-44
2022/05/23 13:50:45;;;;;;;8.90;3.58;;;26.30;63.90;;;;;;5057430;28;20060;-44
2022/05/23 13:53:14;;;;;;;8.82;3.50;;;26.40;63.90;;;;;;5057346;28;20050;-44
2022/05/23 13:55:43;;;;;;;8.18;3.40;;;26.40;63.90;;;;;;5074929;28;20135;-44
2022/05/23 13:58:11;;;;;;;7.38;3.75;;;26.50;64.20;;;;;;5057128;28;20408;-44
2022/05/23 14:00:39;;;;;;;7.68;3.75;;;26.40;63.00;;;;;;5057356;28;20053;-43
2022/05/23 14:03:10;;;;;;;7.40;3.38;;;26.40;63.40;;;;;;5067256;28;20049;-43
2022/05/23 14:05:41;;;;;;;6.63;3.30;;;26.40;63.60;;;;;;5067660;28;20416;-43